createdAt,value
2019-03-26T00:02:01.768Z,6.20
2019-03-26T00:04:29.871Z,7.00
2019-03-26T00:06:58.678Z,6.00
2019-03-26T00:09:26.056Z,5.90
2019-03-26T00:11:53.612Z,6.27
2019-03-26T00:14:20.172Z,6.60
2019-03-26T00:16:46.774Z,5.67
2019-03-26T00:19:17.163Z,5.23
2019-03-26T00:21:43.692Z,6.00
2019-03-26T00:24:10.618Z,5.40
2019-03-26T00:26:37.135Z,5.57
2019-03-26T00:29:04.121Z,4.07
2019-03-26T00:31:30.719Z,6.13
2019-03-26T00:33:57.219Z,5.60
2019-03-26T00:36:23.731Z,4.83
2019-03-26T00:38:50.312Z,5.10
2019-03-26T00:41:17.460Z,4.90
2019-03-26T00:43:45.770Z,5.40
2019-03-26T00:46:22.677Z,5.83
2019-03-26T00:56:51.521Z,5.33
2019-03-26T00:59:19.330Z,4.30
2019-03-26T01:01:46.061Z,5.20
2019-03-26T01:04:14.591Z,3.63
2019-03-26T01:06:41.108Z,5.27
2019-03-26T01:09:07.747Z,6.40
2019-03-26T01:11:35.568Z,6.63
2019-03-26T01:14:02.388Z,5.63
2019-03-26T01:16:29.892Z,6.13
2019-03-26T01:18:56.569Z,6.40
2019-03-26T01:21:26.956Z,6.37
2019-03-26T01:23:56.892Z,5.00
2019-03-26T01:26:24.271Z,5.33
2019-03-26T01:28:51.150Z,6.07
2019-03-26T01:31:18.003Z,5.73
2019-03-26T01:33:44.812Z,3.90
2019-03-26T01:36:11.297Z,5.37
2019-03-26T01:38:38.794Z,5.37
2019-03-26T01:41:05.603Z,6.03
2019-03-26T01:43:32.318Z,6.37
2019-03-26T01:45:59.067Z,5.53
2019-03-26T01:48:27.643Z,5.50
2019-03-26T01:50:54.549Z,4.70
2019-03-26T01:53:22.313Z,5.60
2019-03-26T01:55:50.361Z,4.40
2019-03-26T01:58:17.623Z,4.83
2019-03-26T02:00:45.495Z,4.43
2019-03-26T02:03:12.399Z,4.87
2019-03-26T02:05:39.672Z,5.47
2019-03-26T02:08:07.207Z,4.20
2019-03-26T02:10:34.442Z,4.00
2019-03-26T02:13:01.069Z,3.90
2019-03-26T02:15:29.269Z,3.43
2019-03-26T02:17:56.606Z,4.60
2019-03-26T02:20:23.278Z,3.70
2019-03-26T02:22:54.091Z,3.40
2019-03-26T02:25:20.923Z,4.60
2019-03-26T02:27:49.502Z,4.00
2019-03-26T02:30:16.774Z,3.10
2019-03-26T02:32:45.055Z,5.00
2019-03-26T02:35:18.194Z,3.30
2019-03-26T02:37:41.111Z,3.43
2019-03-26T02:40:08.086Z,3.87
2019-03-26T02:42:36.382Z,4.10
2019-03-26T02:45:04.563Z,3.77
2019-03-26T02:47:31.167Z,4.30
2019-03-26T02:49:59.655Z,5.33
2019-03-26T02:52:27.151Z,5.63
2019-03-26T02:54:53.712Z,4.40
2019-03-26T02:57:20.365Z,4.50
2019-03-26T02:59:47.568Z,4.17
2019-03-26T03:02:17.488Z,3.53
2019-03-26T03:04:44.782Z,4.23
2019-03-26T03:07:11.612Z,3.70
2019-03-26T03:09:39.024Z,3.87
2019-03-26T03:12:05.580Z,2.47
2019-03-26T03:14:32.450Z,2.77
2019-03-26T03:16:59.106Z,3.63
2019-03-26T03:19:25.801Z,4.07
2019-03-26T03:21:52.189Z,5.47
2019-03-26T03:24:19.012Z,3.50
2019-03-26T03:26:45.779Z,2.60
2019-03-26T03:29:12.235Z,3.43
2019-03-26T03:31:41.959Z,4.20
2019-03-26T03:34:14.488Z,7.00
2019-03-26T03:36:41.481Z,3.00
2019-03-26T03:39:08.373Z,3.67
2019-03-26T03:45:27.411Z,2.67
2019-03-26T03:47:56.208Z,3.00
2019-03-26T03:50:26.168Z,3.00
2019-03-26T03:52:56.535Z,3.10
2019-03-26T03:55:23.528Z,3.03
2019-03-26T03:57:53.025Z,3.20
2019-03-26T04:00:31.747Z,3.60
2019-03-26T04:02:59.035Z,3.30
2019-03-26T04:05:26.666Z,7.90
2019-03-26T04:07:54.345Z,3.70
2019-03-26T04:10:25.712Z,4.03
2019-03-26T04:12:52.431Z,3.60
2019-03-26T04:15:19.119Z,3.17
2019-03-26T04:17:46.017Z,3.07
2019-03-26T04:20:12.883Z,1.97
2019-03-26T04:22:40.074Z,3.27
2019-03-26T04:25:08.180Z,3.37
2019-03-26T04:27:37.041Z,4.27
2019-03-26T04:30:07.934Z,4.57
2019-03-26T04:32:34.865Z,5.00
2019-03-26T04:35:01.624Z,4.07
2019-03-26T04:37:28.211Z,4.53
2019-03-26T04:39:54.854Z,2.43
2019-03-26T04:42:21.651Z,3.27
2019-03-26T04:44:48.219Z,4.30
2019-03-26T04:47:15.447Z,4.30
2019-03-26T04:49:42.831Z,3.83
2019-03-26T04:52:10.487Z,3.23
2019-03-26T04:54:37.183Z,3.60
2019-03-26T04:57:04.182Z,2.47
2019-03-26T04:59:31.807Z,2.77
2019-03-26T05:01:58.541Z,4.23
2019-03-26T05:04:32.598Z,4.50
2019-03-26T05:06:59.297Z,3.20
2019-03-26T05:09:26.103Z,3.03
2019-03-26T05:11:52.861Z,2.67
2019-03-26T05:14:19.762Z,4.40
2019-03-26T05:16:46.436Z,3.93
2019-03-26T05:19:13.129Z,3.13
2019-03-26T05:21:40.056Z,2.60
2019-03-26T05:24:07.692Z,3.27
2019-03-26T05:26:34.800Z,4.87
2019-03-26T05:29:01.721Z,3.33
2019-03-26T05:31:52.157Z,3.60
2019-03-26T05:34:19.462Z,2.67
2019-03-26T05:36:51.591Z,3.47
2019-03-26T05:39:17.699Z,2.30
2019-03-26T05:41:45.510Z,2.77
2019-03-26T05:44:12.842Z,2.13
2019-03-26T05:46:41.415Z,2.50
2019-03-26T05:49:11.663Z,2.10
2019-03-26T05:51:39.707Z,2.60
2019-03-26T05:54:09.539Z,2.47
2019-03-26T05:56:39.203Z,2.83
2019-03-26T05:59:07.835Z,3.23
2019-03-26T06:01:35.382Z,2.17
2019-03-26T06:04:02.272Z,2.77
2019-03-26T06:06:31.430Z,2.10
2019-03-26T06:08:59.840Z,2.90
2019-03-26T06:11:45.759Z,1.93
2019-03-26T06:14:14.709Z,3.00
2019-03-26T06:16:44.428Z,2.77
2019-03-26T06:19:13.328Z,2.07
2019-03-26T06:21:45.481Z,2.87
2019-03-26T06:24:12.840Z,1.93
2019-03-26T06:26:48.661Z,2.33
2019-03-26T06:29:15.416Z,1.50
2019-03-26T06:31:43.718Z,2.20
2019-03-26T06:37:01.435Z,3.00
2019-03-26T06:39:28.457Z,3.83
2019-03-26T06:41:55.156Z,3.83
2019-03-26T06:44:23.682Z,3.60
2019-03-26T06:46:50.743Z,2.97
2019-03-26T06:49:18.022Z,3.30
2019-03-26T06:51:50.729Z,2.57
2019-03-26T06:54:19.602Z,2.80
2019-03-26T06:56:46.767Z,4.03
2019-03-26T06:59:15.489Z,3.27
2019-03-26T07:01:44.013Z,2.50
2019-03-26T07:04:14.621Z,2.07
2019-03-26T07:06:44.289Z,2.30
2019-03-26T07:09:10.930Z,3.00
2019-03-26T07:11:42.897Z,1.77
2019-03-26T07:14:11.888Z,2.10
2019-03-26T07:16:38.822Z,2.50
2019-03-26T07:19:07.220Z,2.63
2019-03-26T07:21:49.089Z,2.60
2019-03-26T07:24:08.106Z,2.40
2019-03-26T07:26:36.553Z,3.20
2019-03-26T07:29:03.255Z,2.73
2019-03-26T07:31:30.279Z,2.20
2019-03-26T07:33:57.144Z,2.67
2019-03-26T07:36:24.552Z,2.10
2019-03-26T07:38:51.690Z,2.23
2019-03-26T07:41:19.139Z,2.30
2019-03-26T07:43:45.597Z,1.87
2019-03-26T07:46:14.016Z,2.90
2019-03-26T07:48:43.119Z,1.80
2019-03-26T07:51:12.349Z,2.03
2019-03-26T07:53:39.831Z,1.77
2019-03-26T07:56:17.781Z,2.20
2019-03-26T07:58:44.973Z,3.73
2019-03-26T08:01:12.209Z,1.97
2019-03-26T08:03:39.720Z,2.00
2019-03-26T08:06:27.231Z,2.10
2019-03-26T08:08:59.734Z,1.67
2019-03-26T08:11:32.785Z,2.33
2019-03-26T08:14:02.913Z,1.93
2019-03-26T08:16:29.526Z,2.17
2019-03-26T08:18:56.448Z,2.40
2019-03-26T08:21:23.272Z,2.20
2019-03-26T08:23:52.143Z,2.40
2019-03-26T08:26:20.133Z,2.37
2019-03-26T08:28:49.163Z,2.60
2019-03-26T08:31:20.550Z,2.77
2019-03-26T08:33:48.929Z,2.50
2019-03-26T08:36:16.547Z,1.83
2019-03-26T08:38:43.003Z,1.87
2019-03-26T08:41:11.744Z,2.57
2019-03-26T08:43:41.012Z,3.13
2019-03-26T08:46:07.951Z,3.60
2019-03-26T08:48:34.888Z,2.20
2019-03-26T08:51:03.397Z,2.30
2019-03-26T08:53:30.002Z,3.13
2019-03-26T08:56:00.501Z,2.10
2019-03-26T08:58:26.995Z,2.97
2019-03-26T09:00:54.049Z,1.70
2019-03-26T09:03:21.118Z,2.70
2019-03-26T09:05:49.443Z,2.23
2019-03-26T09:08:25.318Z,3.40
2019-03-26T09:10:51.989Z,2.70
2019-03-26T09:13:15.803Z,2.07
2019-03-26T09:15:42.574Z,2.47
2019-03-26T09:18:09.372Z,3.00
2019-03-26T09:20:37.258Z,2.83
2019-03-26T09:23:05.126Z,2.03
2019-03-26T09:25:32.089Z,2.13
2019-03-26T09:27:59.463Z,2.03
2019-03-26T09:30:26.248Z,2.50
2019-03-26T09:32:55.578Z,2.40
2019-03-26T09:35:25.244Z,2.40
2019-03-26T09:37:55.350Z,2.03
2019-03-26T09:40:22.832Z,1.73
2019-03-26T09:42:49.386Z,2.47
2019-03-26T09:45:16.417Z,3.80
2019-03-26T09:47:42.861Z,2.80
2019-03-26T09:50:10.903Z,1.90
2019-03-26T09:52:37.884Z,1.70
2019-03-26T09:55:05.683Z,2.77
2019-03-26T09:57:34.974Z,2.30
2019-03-26T10:00:02.147Z,2.47
2019-03-26T10:02:31.933Z,2.30
2019-03-26T10:04:58.527Z,2.30
2019-03-26T10:07:26.304Z,1.83
2019-03-26T10:09:53.401Z,2.33
2019-03-26T10:12:20.365Z,2.63
2019-03-26T10:14:47.249Z,2.00
2019-03-26T10:17:16.178Z,2.43
2019-03-26T10:19:43.300Z,2.70
2019-03-26T10:22:10.858Z,2.30
2019-03-26T10:24:37.641Z,2.30
2019-03-26T10:27:04.394Z,3.43
2019-03-26T10:29:31.394Z,2.03
2019-03-26T10:31:58.428Z,2.17
2019-03-26T10:34:25.275Z,2.40
2019-03-26T10:36:52.102Z,2.90
2019-03-26T10:39:24.251Z,2.00
2019-03-26T10:41:51.984Z,2.50
2019-03-26T10:44:19.277Z,2.83
2019-03-26T10:46:46.186Z,1.73
2019-03-26T10:49:13.308Z,2.47
2019-03-26T10:51:39.889Z,2.80
2019-03-26T10:54:08.810Z,2.10
2019-03-26T10:56:35.484Z,2.30
2019-03-26T10:59:04.265Z,1.87
2019-03-26T11:01:30.867Z,1.30
2019-03-26T11:04:07.695Z,2.00
2019-03-26T11:06:34.253Z,3.10
2019-03-26T11:09:01.292Z,2.17
2019-03-26T11:11:28.663Z,2.50
2019-03-26T11:13:58.574Z,2.63
2019-03-26T11:16:23.953Z,1.70
2019-03-26T11:18:55.961Z,2.40
2019-03-26T11:21:24.415Z,2.40
2019-03-26T11:23:50.835Z,2.63
2019-03-26T11:26:19.833Z,2.50
2019-03-26T11:28:46.573Z,1.90
2019-03-26T11:31:13.243Z,2.40
2019-03-26T11:33:40.222Z,3.20
2019-03-26T11:38:55.172Z,3.00
2019-03-26T11:41:23.042Z,2.57
2019-03-26T11:43:50.265Z,2.50
2019-03-26T11:49:05.967Z,2.47
2019-03-26T11:51:34.118Z,1.90
2019-03-26T11:54:11.670Z,2.27
2019-03-26T11:56:41.762Z,1.23
2019-03-26T11:59:09.338Z,2.13
2019-03-26T12:01:35.993Z,1.90
2019-03-26T12:04:05.130Z,2.80
2019-03-26T12:06:37.992Z,1.67
2019-03-26T12:09:25.265Z,2.80
2019-03-26T12:11:52.597Z,2.83
2019-03-26T12:14:19.409Z,2.10
2019-03-26T12:16:46.197Z,2.23
2019-03-26T12:19:12.897Z,2.70
2019-03-26T12:24:31.738Z,2.93
2019-03-26T12:26:59.153Z,2.13
2019-03-26T12:32:15.930Z,2.77
2019-03-26T12:34:43.453Z,2.33
2019-03-26T12:37:20.397Z,2.33
2019-03-26T12:39:58.786Z,2.50
2019-03-26T12:42:18.660Z,2.07
2019-03-26T12:44:45.770Z,1.70
2019-03-26T12:47:13.180Z,3.23
2019-03-26T12:49:40.496Z,2.30
2019-03-26T12:52:10.990Z,2.87
2019-03-26T12:54:37.988Z,3.50
2019-03-26T12:57:06.551Z,2.47
2019-03-26T12:59:34.220Z,1.97
2019-03-26T13:02:01.463Z,1.67
2019-03-26T13:04:30.912Z,1.37
2019-03-26T13:06:59.428Z,2.53
2019-03-26T13:09:28.951Z,1.60
2019-03-26T13:11:57.199Z,2.80
2019-03-26T13:14:24.790Z,2.67
2019-03-26T13:16:55.058Z,2.80
2019-03-26T13:19:21.896Z,2.40
2019-03-26T13:21:48.985Z,4.03
2019-03-26T13:24:15.651Z,2.97
2019-03-26T13:26:42.476Z,3.03
2019-03-26T13:29:13.956Z,2.90
2019-03-26T13:31:42.343Z,2.50
2019-03-26T13:34:10.622Z,2.80
2019-03-26T13:36:37.920Z,1.60
2019-03-26T13:39:07.317Z,3.13
2019-03-26T13:41:36.580Z,2.50
2019-03-26T13:44:06.081Z,3.10
2019-03-26T13:46:34.208Z,2.40
2019-03-26T13:49:07.423Z,2.57
2019-03-26T13:51:37.123Z,2.83
2019-03-26T13:56:54.328Z,3.00
2019-03-26T13:59:22.945Z,2.77
2019-03-26T14:04:39.676Z,2.70
2019-03-26T14:07:08.910Z,2.80
2019-03-26T14:09:39.384Z,3.87
2019-03-26T14:12:13.448Z,3.03
2019-03-26T14:17:27.467Z,1.80
2019-03-26T14:22:42.647Z,2.50
2019-03-26T14:25:11.033Z,2.80
2019-03-26T14:27:40.161Z,1.23
2019-03-26T14:30:08.683Z,3.27
2019-03-26T14:32:37.524Z,1.60
2019-03-26T14:35:05.050Z,1.30
2019-03-26T14:37:33.787Z,3.30
2019-03-26T14:40:02.936Z,2.33
2019-03-26T14:42:35.667Z,1.47
2019-03-26T14:47:55.823Z,2.33
2019-03-26T14:50:22.656Z,2.87
2019-03-26T14:52:49.654Z,2.03
2019-03-26T14:55:22.412Z,2.33
2019-03-26T14:57:52.781Z,1.10
2019-03-26T15:06:05.768Z,1.90
2019-03-26T15:08:34.292Z,1.40
2019-03-26T15:11:07.861Z,2.60
2019-03-26T15:13:32.584Z,1.53
2019-03-26T15:16:01.055Z,1.80
2019-03-26T15:18:30.090Z,2.23
2019-03-26T15:21:01.139Z,2.40
2019-03-26T15:26:27.313Z,1.77
2019-03-26T15:31:52.125Z,1.80
2019-03-26T15:34:21.368Z,1.50
2019-03-26T15:36:53.587Z,1.43
2019-03-26T15:47:55.635Z,2.40
2019-03-26T15:50:45.006Z,1.70
2019-03-26T15:53:15.547Z,1.87
2019-03-26T15:55:50.550Z,1.90
2019-03-26T16:09:52.606Z,2.23
2019-03-26T16:20:56.711Z,2.30
2019-03-26T16:23:24.691Z,2.00
2019-03-26T16:40:37.963Z,1.90
2019-03-26T16:57:09.821Z,2.40
2019-03-26T16:59:36.756Z,2.30
2019-03-26T17:02:03.862Z,2.33
2019-03-26T17:04:33.455Z,2.67
2019-03-26T17:07:08.156Z,2.20
2019-03-26T17:12:38.027Z,2.20
2019-03-26T17:15:07.294Z,2.37
2019-03-26T17:17:54.405Z,1.90
2019-03-26T17:20:24.577Z,2.03
2019-03-26T17:22:53.266Z,1.70
2019-03-26T17:25:22.365Z,2.17
2019-03-26T17:27:49.251Z,2.10
2019-03-26T17:30:17.368Z,2.87
2019-03-26T17:35:39.085Z,2.87
2019-03-26T17:38:06.103Z,2.63
2019-03-26T17:40:33.699Z,2.77
2019-03-26T17:43:00.330Z,3.10
2019-03-26T17:45:27.477Z,2.03
2019-03-26T17:47:58.173Z,2.77
2019-03-26T17:50:29.151Z,2.40
2019-03-26T17:52:56.591Z,3.70
2019-03-26T17:59:19.345Z,2.70
2019-03-26T18:01:01.379Z,3.50
2019-03-26T18:06:16.852Z,2.93
2019-03-26T18:08:44.412Z,2.93
2019-03-26T18:11:11.547Z,2.87
2019-03-26T18:13:38.817Z,3.07
2019-03-26T18:16:05.968Z,3.40
2019-03-26T18:21:35.658Z,3.23
2019-03-26T18:24:04.181Z,2.70
2019-03-26T18:26:32.554Z,3.30
2019-03-26T18:29:13.759Z,3.40
2019-03-26T18:34:30.344Z,3.37
2019-03-26T18:36:59.340Z,3.30
2019-03-26T18:39:26.048Z,4.17
2019-03-26T18:41:54.515Z,3.33
2019-03-26T18:44:21.419Z,4.13
2019-03-26T18:46:49.634Z,3.60
2019-03-26T18:49:17.430Z,4.50
2019-03-26T18:51:44.136Z,3.67
2019-03-26T18:54:12.036Z,4.40
2019-03-26T18:56:43.216Z,4.53
2019-03-26T19:05:13.533Z,6.27
2019-03-26T19:10:34.921Z,4.87
2019-03-26T19:13:02.519Z,4.57
2019-03-26T19:15:30.559Z,6.10
2019-03-26T19:17:57.321Z,4.43
2019-03-26T19:20:24.267Z,6.10
2019-03-26T19:22:54.863Z,5.13
2019-03-26T19:25:22.258Z,4.30
2019-03-26T19:27:50.064Z,4.97
2019-03-26T19:30:16.872Z,5.20
2019-03-26T19:32:45.353Z,4.70
2019-03-26T19:38:11.422Z,6.03
2019-03-26T19:40:38.239Z,4.47
2019-03-26T19:43:10.653Z,4.20
2019-03-26T19:45:33.681Z,3.70
2019-03-26T19:48:01.916Z,4.07
2019-03-26T19:50:34.812Z,3.43
2019-03-26T19:53:02.055Z,3.10
2019-03-26T19:55:31.673Z,4.33
2019-03-26T19:58:01.507Z,3.13
2019-03-26T20:00:28.692Z,6.40
2019-03-26T20:02:55.687Z,5.30
2019-03-26T20:05:22.984Z,5.33
2019-03-26T20:07:50.911Z,4.30
2019-03-26T20:10:18.111Z,4.00
2019-03-26T20:12:44.785Z,4.77
2019-03-26T20:18:01.907Z,3.17
2019-03-26T20:20:29.263Z,5.07
2019-03-26T20:23:04.833Z,4.70
2019-03-26T20:25:32.012Z,3.93
2019-03-26T20:30:50.057Z,2.67
2019-03-26T20:33:19.094Z,3.30
2019-03-26T20:35:50.626Z,3.50
2019-03-26T20:38:22.525Z,4.07
2019-03-26T20:40:51.232Z,2.67
2019-03-26T20:43:21.593Z,2.47
2019-03-26T20:45:50.083Z,4.27
2019-03-26T20:48:18.349Z,3.97
2019-03-26T20:50:45.694Z,4.20
2019-03-26T20:53:13.250Z,5.97
2019-03-26T20:55:53.702Z,5.90
2019-03-26T21:01:07.341Z,3.50
2019-03-26T21:17:29.001Z,2.73
2019-03-26T21:22:48.025Z,3.13
2019-03-26T21:39:08.718Z,2.67
2019-03-26T21:41:35.736Z,2.77
2019-03-26T21:44:04.413Z,2.60
2019-03-26T21:46:31.985Z,3.60
2019-03-26T21:48:59.202Z,2.80
2019-03-26T21:51:26.312Z,3.13
2019-03-26T21:53:53.886Z,2.70
2019-03-26T21:56:20.482Z,3.10
2019-03-26T21:58:47.859Z,2.50
2019-03-26T22:01:15.284Z,3.50
2019-03-26T22:03:41.999Z,3.43
2019-03-26T22:08:58.441Z,2.30
2019-03-26T22:11:26.819Z,2.90
2019-03-26T22:13:54.290Z,2.20
2019-03-26T22:16:22.845Z,2.53
2019-03-26T22:21:43.538Z,3.07
2019-03-26T22:24:12.368Z,2.57
2019-03-26T22:29:33.625Z,2.07
2019-03-26T22:32:07.942Z,2.30
2019-03-26T22:34:34.670Z,2.80
2019-03-26T22:37:04.731Z,2.13
2019-03-26T22:39:31.675Z,2.70
2019-03-26T22:41:59.115Z,2.27
2019-03-26T22:44:31.509Z,2.90
2019-03-26T22:47:02.290Z,3.60
2019-03-26T22:49:30.807Z,2.93
2019-03-26T22:51:58.228Z,2.23
2019-03-26T22:54:24.893Z,2.70
2019-03-26T22:59:47.533Z,3.03
2019-03-26T23:08:24.909Z,3.30
2019-03-26T23:13:51.421Z,3.07
2019-03-26T23:25:09.193Z,4.57
2019-03-26T23:28:02.836Z,4.03
2019-03-26T23:34:16.828Z,4.70
2019-03-26T23:39:41.785Z,5.00
2019-03-26T23:48:07.663Z,4.70
2019-03-26T23:50:37.773Z,5.80
2019-03-26T23:53:07.575Z,4.00
2019-03-26T23:55:46.445Z,3.40
